createdAt,value
2024-05-09T00:02:04.875Z,3.03
2024-05-09T00:06:08.518Z,2.40
2024-05-09T00:10:17.846Z,2.53
2024-05-09T00:14:13.092Z,2.83
2024-05-09T00:18:14.719Z,2.50
2024-05-09T00:22:16.334Z,2.40
2024-05-09T00:26:17.720Z,2.40
2024-05-09T00:30:27.789Z,2.17
2024-05-09T00:34:23.714Z,3.43
2024-05-09T00:38:25.088Z,2.27
2024-05-09T00:42:26.384Z,3.00
2024-05-09T00:46:27.688Z,2.53
2024-05-09T00:50:35.754Z,2.50
2024-05-09T00:54:32.817Z,4.53
2024-05-09T00:58:34.152Z,3.50
2024-05-09T01:02:35.596Z,3.17
2024-05-09T01:06:37.217Z,3.60
2024-05-09T01:10:39.511Z,3.00
2024-05-09T01:14:41.964Z,3.40
2024-05-09T01:18:43.417Z,2.97
2024-05-09T01:22:45.122Z,3.70
2024-05-09T01:26:46.527Z,2.90
2024-05-09T01:30:47.819Z,3.63
2024-05-09T01:34:49.207Z,3.47
2024-05-09T01:38:50.446Z,4.93
2024-05-09T01:42:51.769Z,4.13
2024-05-09T01:46:53.112Z,3.90
2024-05-09T01:50:54.442Z,4.60
2024-05-09T01:54:55.707Z,4.27
2024-05-09T01:58:57.057Z,3.00
2024-05-09T02:02:58.506Z,3.97
2024-05-09T02:07:00.949Z,4.00
2024-05-09T02:11:02.401Z,5.13
2024-05-09T02:15:04.651Z,3.80
2024-05-09T02:19:06.088Z,4.23
2024-05-09T02:23:08.288Z,4.23
2024-05-09T02:27:09.826Z,5.60
2024-05-09T02:31:12.544Z,4.93
2024-05-09T02:35:14.143Z,5.20
2024-05-09T02:39:15.520Z,4.70
2024-05-09T02:43:16.863Z,4.63
2024-05-09T02:47:18.269Z,4.67
2024-05-09T02:51:19.606Z,4.30
2024-05-09T02:59:28.142Z,4.47
2024-05-09T03:03:29.693Z,4.47
2024-05-09T03:07:31.467Z,4.53
2024-05-09T03:11:32.868Z,3.20
2024-05-09T03:15:34.337Z,4.20
2024-05-09T03:19:36.210Z,4.03
2024-05-09T03:23:41.310Z,4.10
2024-05-09T03:27:42.692Z,4.13
2024-05-09T03:31:44.183Z,4.20
2024-05-09T03:35:45.818Z,3.97
2024-05-09T03:39:47.216Z,4.77
2024-05-09T03:43:48.600Z,5.13
2024-05-09T03:47:50.047Z,4.00
2024-05-09T03:51:51.531Z,5.03
2024-05-09T03:55:52.810Z,3.87
2024-05-09T03:59:54.140Z,4.20
2024-05-09T04:03:55.836Z,3.73
2024-05-09T04:07:57.502Z,3.73
2024-05-09T04:11:59.040Z,3.40
2024-05-09T04:16:00.372Z,3.37
2024-05-09T04:20:01.720Z,3.50
2024-05-09T04:24:05.358Z,5.40
2024-05-09T04:28:06.688Z,2.83
2024-05-09T04:32:08.079Z,2.77
2024-05-09T04:36:09.539Z,4.60
2024-05-09T04:40:20.527Z,5.53
2024-05-09T04:44:14.572Z,3.63
2024-05-09T04:48:16.042Z,4.30
2024-05-09T04:52:17.570Z,3.60
2024-05-09T04:56:19.766Z,3.87
2024-05-09T05:00:28.637Z,4.77
2024-05-09T05:04:24.486Z,3.47
2024-05-09T05:08:26.332Z,3.10
2024-05-09T05:12:45.744Z,2.93
2024-05-09T05:16:47.111Z,3.97
2024-05-09T05:20:49.152Z,3.57
2024-05-09T05:24:50.497Z,5.50
2024-05-09T05:28:51.889Z,3.53
2024-05-09T05:32:53.405Z,4.17
2024-05-09T05:36:55.291Z,5.10
2024-05-09T05:40:56.806Z,4.53
2024-05-09T05:44:58.348Z,5.40
2024-05-09T05:48:59.683Z,4.67
2024-05-09T05:53:01.192Z,4.50
2024-05-09T05:57:03.644Z,5.20
2024-05-09T06:01:05.189Z,4.63
2024-05-09T06:05:06.885Z,4.37
2024-05-09T06:09:08.278Z,4.40
2024-05-09T06:13:10.111Z,4.33
2024-05-09T06:17:12.192Z,4.77
2024-05-09T06:21:16.316Z,4.20
2024-05-09T06:25:18.115Z,4.53
2024-05-09T06:29:19.459Z,4.33
2024-05-09T06:33:21.822Z,4.90
2024-05-09T06:37:23.283Z,4.33
2024-05-09T06:41:25.153Z,4.57
2024-05-09T06:45:26.471Z,4.43
2024-05-09T06:49:29.349Z,3.60
2024-05-09T06:53:30.886Z,3.20
2024-05-09T06:57:32.291Z,3.63
2024-05-09T07:01:33.671Z,4.50
2024-05-09T07:05:35.130Z,5.33
2024-05-09T07:09:36.829Z,5.60
2024-05-09T07:13:38.172Z,4.40
2024-05-09T07:17:39.611Z,3.57
2024-05-09T07:21:41.013Z,3.80
2024-05-09T07:25:42.537Z,4.13
2024-05-09T07:29:43.888Z,4.27
2024-05-09T07:33:45.628Z,3.63
2024-05-09T07:37:47.450Z,3.10
2024-05-09T07:41:49.049Z,3.47
2024-05-09T07:45:54.094Z,2.80
2024-05-09T07:51:32.878Z,3.07
2024-05-09T07:53:59.877Z,3.50
2024-05-09T08:02:07.796Z,2.83
2024-05-09T08:06:09.165Z,3.27
2024-05-09T08:10:12.898Z,4.13
2024-05-09T08:14:13.579Z,2.63
2024-05-09T08:18:15.214Z,2.50
2024-05-09T08:22:16.678Z,3.43
2024-05-09T08:26:18.004Z,3.00
2024-05-09T08:30:25.282Z,2.70
2024-05-09T08:34:23.092Z,2.47
2024-05-09T08:38:24.940Z,2.70
2024-05-09T08:42:28.445Z,3.23
2024-05-09T08:46:31.750Z,2.70
2024-05-09T08:50:38.890Z,3.00
2024-05-09T08:54:37.849Z,2.93
2024-05-09T08:58:41.098Z,2.67
2024-05-09T09:02:44.565Z,2.30
2024-05-09T09:06:46.254Z,2.77
2024-05-09T09:10:48.526Z,2.50
2024-05-09T09:14:50.262Z,2.33
2024-05-09T09:18:52.566Z,2.93
2024-05-09T09:22:54.532Z,1.80
2024-05-09T09:26:56.550Z,1.70
2024-05-09T09:31:02.441Z,1.80
2024-05-09T09:35:04.410Z,2.30
2024-05-09T09:39:06.986Z,1.20
2024-05-09T09:43:12.440Z,2.07
2024-05-09T09:47:14.750Z,1.83
2024-05-09T09:51:16.378Z,2.20
2024-05-09T09:55:17.844Z,2.50
2024-05-09T09:59:21.405Z,1.73
2024-05-09T10:03:22.927Z,2.07
2024-05-09T10:07:26.729Z,1.90
2024-05-09T10:11:32.843Z,1.80
2024-05-09T10:15:48.969Z,2.63
2024-05-09T10:19:50.353Z,1.87
2024-05-09T10:24:01.219Z,2.33
2024-05-09T10:28:06.404Z,2.53
2024-05-09T10:32:08.301Z,2.07
2024-05-09T10:36:21.220Z,1.67
2024-05-09T10:40:28.784Z,1.90
2024-05-09T10:44:26.142Z,2.27
2024-05-09T10:48:31.498Z,2.10
2024-05-09T10:52:34.019Z,2.00
2024-05-09T10:56:36.441Z,2.53
2024-05-09T11:00:38.025Z,2.57
2024-05-09T11:04:40.299Z,2.00
2024-05-09T11:08:42.356Z,2.57
2024-05-09T11:12:45.172Z,1.60
2024-05-09T11:16:46.512Z,2.33
2024-05-09T11:20:47.838Z,1.60
2024-05-09T11:24:49.366Z,2.03
2024-05-09T11:28:51.298Z,2.07
2024-05-09T11:32:53.376Z,2.30
2024-05-09T11:36:54.938Z,2.10
2024-05-09T11:40:57.230Z,1.80
2024-05-09T11:44:58.523Z,2.50
2024-05-09T11:49:00.030Z,2.30
2024-05-09T11:53:01.420Z,1.70
2024-05-09T11:57:03.881Z,2.30
2024-05-09T12:01:05.245Z,1.50
2024-05-09T12:05:06.889Z,1.70
2024-05-09T12:09:08.515Z,1.77
2024-05-09T12:13:10.108Z,1.73
2024-05-09T12:17:12.108Z,1.67
2024-05-09T12:21:15.322Z,1.60
2024-05-09T12:25:16.812Z,1.77
2024-05-09T12:29:18.178Z,2.27
2024-05-09T12:33:20.221Z,2.53
2024-05-09T12:37:21.675Z,1.67
2024-05-09T12:41:23.091Z,2.07
2024-05-09T12:45:25.002Z,2.00
2024-05-09T12:49:26.659Z,1.70
2024-05-09T12:53:28.377Z,1.80
2024-05-09T12:57:30.054Z,1.70
2024-05-09T13:01:31.573Z,1.27
2024-05-09T13:05:33.325Z,1.60
2024-05-09T13:09:35.142Z,2.17
2024-05-09T13:13:36.526Z,1.43
2024-05-09T13:17:38.068Z,1.70
2024-05-09T13:21:39.649Z,1.40
2024-05-09T13:25:40.973Z,1.50
2024-05-09T13:29:44.344Z,1.97
2024-05-09T13:33:46.151Z,1.77
2024-05-09T13:37:47.913Z,1.63
2024-05-09T13:41:49.234Z,1.23
2024-05-09T13:45:51.327Z,1.43
2024-05-09T13:49:52.898Z,1.40
2024-05-09T13:53:56.133Z,2.13
2024-05-09T13:57:57.729Z,2.73
2024-05-09T14:01:59.404Z,1.83
2024-05-09T14:06:01.757Z,1.40
2024-05-09T14:10:23.227Z,1.60
2024-05-09T14:14:20.279Z,1.67
2024-05-09T14:18:21.699Z,2.00
2024-05-09T14:22:23.233Z,1.30
2024-05-09T14:26:25.343Z,1.53
2024-05-09T14:30:34.679Z,1.60
2024-05-09T14:34:30.225Z,1.53
2024-05-09T14:38:31.675Z,1.70
2024-05-09T14:42:33.089Z,1.50
2024-05-09T14:46:34.762Z,1.60
2024-05-09T14:50:39.135Z,1.00
2024-05-09T14:54:39.659Z,1.50
2024-05-09T14:58:41.059Z,1.10
2024-05-09T15:02:42.411Z,1.20
2024-05-09T15:06:43.964Z,1.50
2024-05-09T15:10:45.664Z,1.97
2024-05-09T15:14:47.627Z,1.70
2024-05-09T15:18:49.176Z,1.77
2024-05-09T15:22:50.813Z,2.40
2024-05-09T15:26:53.107Z,1.40
2024-05-09T15:30:54.486Z,1.30
2024-05-09T15:34:55.924Z,1.40
2024-05-09T15:38:57.215Z,1.50
2024-05-09T15:42:58.630Z,1.80
2024-05-09T15:47:00.326Z,1.93
2024-05-09T15:51:01.821Z,1.27
2024-05-09T15:55:04.258Z,1.77
2024-05-09T15:59:05.953Z,1.30
2024-05-09T16:03:12.769Z,1.67
2024-05-09T16:07:14.801Z,1.70
2024-05-09T16:11:16.413Z,1.37
2024-05-09T16:15:19.012Z,1.37
2024-05-09T16:19:21.062Z,2.00
2024-05-09T16:23:23.459Z,1.47
2024-05-09T16:27:25.769Z,1.43
2024-05-09T16:31:27.497Z,2.50
2024-05-09T16:35:29.088Z,1.53
2024-05-09T16:39:30.435Z,1.93
2024-05-09T16:43:32.040Z,1.90
2024-05-09T16:47:33.624Z,1.20
2024-05-09T16:51:34.945Z,2.37
2024-05-09T16:55:36.655Z,1.70
2024-05-09T16:59:38.343Z,1.60
2024-05-09T17:03:40.133Z,1.70
2024-05-09T17:07:42.380Z,1.53
2024-05-09T17:11:43.776Z,1.40
2024-05-09T17:15:46.130Z,1.00
2024-05-09T17:19:47.876Z,2.03
2024-05-09T17:23:51.057Z,2.20
2024-05-09T17:27:52.607Z,1.20
2024-05-09T17:31:54.037Z,1.97
2024-05-09T17:35:55.354Z,2.07
2024-05-09T17:39:56.863Z,1.90
2024-05-09T17:43:58.305Z,1.77
2024-05-09T17:48:00.459Z,2.00
2024-05-09T17:52:02.003Z,1.50
2024-05-09T17:56:04.016Z,2.00
2024-05-09T18:00:11.471Z,1.60
2024-05-09T18:04:10.362Z,1.63
2024-05-09T18:08:11.930Z,1.43
2024-05-09T18:12:13.392Z,1.90
2024-05-09T18:16:15.507Z,1.40
2024-05-09T18:20:28.284Z,1.67
2024-05-09T18:24:21.403Z,1.53
2024-05-09T18:28:23.618Z,1.80
2024-05-09T18:32:25.199Z,1.87
2024-05-09T18:36:26.837Z,1.80
2024-05-09T18:40:33.984Z,1.50
2024-05-09T18:44:31.318Z,1.20
2024-05-09T18:48:33.713Z,1.20
2024-05-09T18:52:35.110Z,1.47
2024-05-09T18:56:36.843Z,2.17
2024-05-09T19:00:41.119Z,2.27
2024-05-09T19:04:41.517Z,1.50
2024-05-09T19:08:43.124Z,2.30
2024-05-09T19:12:44.556Z,1.50
2024-05-09T19:16:46.021Z,1.53
2024-05-09T19:20:48.630Z,2.27
2024-05-09T19:24:50.511Z,1.40
2024-05-09T19:28:52.000Z,1.70
2024-05-09T19:32:53.450Z,1.57
2024-05-09T19:36:54.799Z,1.50
2024-05-09T19:40:56.294Z,2.07
2024-05-09T19:44:57.784Z,1.70
2024-05-09T19:48:59.585Z,1.77
2024-05-09T19:53:01.199Z,2.90
2024-05-09T19:57:02.972Z,2.70
2024-05-09T20:01:04.654Z,2.10
2024-05-09T20:05:06.659Z,2.60
2024-05-09T20:09:08.080Z,2.37
2024-05-09T20:13:09.691Z,1.63
2024-05-09T20:17:11.058Z,2.03
2024-05-09T20:21:12.436Z,2.33
2024-05-09T20:25:14.267Z,1.63
2024-05-09T20:29:15.764Z,2.50
2024-05-09T20:33:17.328Z,2.13
2024-05-09T20:37:19.926Z,2.50
2024-05-09T20:41:21.191Z,2.70
2024-05-09T20:45:22.556Z,2.20
2024-05-09T20:49:23.998Z,2.33
2024-05-09T20:53:25.311Z,2.00
2024-05-09T20:57:26.639Z,2.43
2024-05-09T21:01:28.001Z,1.70
2024-05-09T21:05:29.434Z,1.60
2024-05-09T21:09:31.000Z,1.97
2024-05-09T21:13:32.392Z,1.73
2024-05-09T21:17:34.888Z,1.83
2024-05-09T21:21:41.316Z,1.97
2024-05-09T21:25:42.609Z,2.60
2024-05-09T21:29:43.926Z,2.30
2024-05-09T21:33:45.485Z,2.33
2024-05-09T21:37:46.803Z,1.77
2024-05-09T21:41:48.171Z,2.83
2024-05-09T21:45:49.567Z,2.20
2024-05-09T21:49:50.964Z,2.00
2024-05-09T21:53:52.322Z,2.07
2024-05-09T21:57:55.651Z,2.00
2024-05-09T22:01:57.274Z,1.93
2024-05-09T22:05:59.367Z,2.33
2024-05-09T22:10:00.851Z,2.90
2024-05-09T22:14:02.311Z,1.93
2024-05-09T22:18:05.300Z,2.70
2024-05-09T22:22:06.824Z,3.27
2024-05-09T22:26:08.235Z,2.00
2024-05-09T22:30:14.657Z,2.60
2024-05-09T22:34:13.253Z,2.07
2024-05-09T22:38:14.690Z,2.60
2024-05-09T22:42:15.983Z,2.60
2024-05-09T22:46:17.665Z,1.80
2024-05-09T22:50:26.546Z,2.07
2024-05-09T22:54:22.249Z,2.00
2024-05-09T22:58:24.012Z,2.73
2024-05-09T23:02:25.809Z,2.40
2024-05-09T23:06:27.123Z,2.50
2024-05-09T23:10:35.175Z,2.90
2024-05-09T23:14:31.853Z,2.40
2024-05-09T23:18:33.406Z,2.87
2024-05-09T23:22:34.759Z,2.20
2024-05-09T23:26:39.887Z,2.20
2024-05-09T23:30:41.994Z,2.40
2024-05-09T23:34:43.881Z,2.37
2024-05-09T23:38:45.450Z,2.30
2024-05-09T23:42:46.966Z,2.60
2024-05-09T23:46:48.300Z,2.53
2024-05-09T23:50:49.593Z,3.27
2024-05-09T23:54:51.072Z,2.93
2024-05-09T23:58:52.370Z,2.40
